createdAt,value
2023-05-24T00:02:28.343Z,13.55
2023-05-24T00:05:00.949Z,13.20
2023-05-24T00:07:32.440Z,13.98
2023-05-24T00:10:00.626Z,13.70
2023-05-24T00:12:29.204Z,13.88
2023-05-24T00:14:57.608Z,12.80
2023-05-24T00:17:26.622Z,13.95
2023-05-24T00:19:55.017Z,13.95
2023-05-24T00:22:23.718Z,13.32
2023-05-24T00:24:53.386Z,13.75
2023-05-24T00:27:22.367Z,15.05
2023-05-24T00:29:50.806Z,13.90
2023-05-24T00:32:19.499Z,15.05
2023-05-24T00:34:47.818Z,15.20
2023-05-24T00:37:16.433Z,16.38
2023-05-24T00:39:44.758Z,16.55
2023-05-24T00:42:14.623Z,17.50
2023-05-24T00:44:43.070Z,15.52
2023-05-24T00:47:12.104Z,17.83
2023-05-24T00:49:40.451Z,16.55
2023-05-24T00:52:09.953Z,16.40
2023-05-24T00:54:40.909Z,17.98
2023-05-24T00:59:39.072Z,19.45
2023-05-24T01:02:07.644Z,16.98
2023-05-24T01:04:37.951Z,17.73
2023-05-24T01:07:14.717Z,18.60
2023-05-24T01:09:57.772Z,20.23
2023-05-24T01:12:31.582Z,16.95
2023-05-24T01:15:10.665Z,15.45
2023-05-24T01:17:48.562Z,15.70
2023-05-24T01:20:19.745Z,18.20
2023-05-24T01:23:09.165Z,16.80
2023-05-24T01:25:47.068Z,16.45
2023-05-24T01:28:18.205Z,16.08
2023-05-24T01:30:46.993Z,15.77
2023-05-24T01:33:15.801Z,13.93
2023-05-24T01:35:44.143Z,13.35
2023-05-24T01:38:12.833Z,14.68
2023-05-24T01:40:42.311Z,13.88
2023-05-24T01:43:19.068Z,15.30
2023-05-24T01:45:54.416Z,14.77
2023-05-24T01:48:32.642Z,14.38
2023-05-24T01:51:03.026Z,13.93
2023-05-24T01:53:35.325Z,16.55
2023-05-24T01:56:05.093Z,16.80
2023-05-24T01:58:35.119Z,14.60
2023-05-24T02:01:03.649Z,15.77
2023-05-24T02:03:33.015Z,16.33
2023-05-24T02:06:01.496Z,15.82
2023-05-24T02:08:30.031Z,16.00
2023-05-24T02:10:58.529Z,16.48
2023-05-24T02:13:26.978Z,17.67
2023-05-24T02:15:56.645Z,17.90
2023-05-24T02:18:25.274Z,18.90
2023-05-24T02:20:53.618Z,18.98
2023-05-24T02:23:22.166Z,19.08
2023-05-24T02:25:50.793Z,20.35
2023-05-24T02:28:19.405Z,18.75
2023-05-24T02:30:47.908Z,19.83
2023-05-24T02:33:17.875Z,20.17
2023-05-24T02:35:46.355Z,20.15
2023-05-24T02:38:14.963Z,18.98
2023-05-24T02:40:43.610Z,19.95
2023-05-24T02:43:12.440Z,18.98
2023-05-24T02:45:40.773Z,18.65
2023-05-24T02:48:09.827Z,21.95
2023-05-24T02:50:39.596Z,20.17
2023-05-24T02:53:08.877Z,19.30
2023-05-24T02:55:38.071Z,19.60
2023-05-24T02:58:08.557Z,22.02
2023-05-24T03:00:37.379Z,20.52
2023-05-24T03:03:06.199Z,19.35
2023-05-24T03:05:34.730Z,19.42
2023-05-24T03:08:05.081Z,17.88
2023-05-24T03:10:33.394Z,17.13
2023-05-24T03:13:02.033Z,17.65
2023-05-24T03:15:30.850Z,18.70
2023-05-24T03:17:59.738Z,18.10
2023-05-24T03:20:28.461Z,15.95
2023-05-24T03:22:57.143Z,16.45
2023-05-24T03:25:27.508Z,16.60
2023-05-24T03:27:56.065Z,17.67
2023-05-24T03:30:24.828Z,16.10
2023-05-24T03:32:53.475Z,16.90
2023-05-24T03:35:21.839Z,14.90
2023-05-24T03:37:50.905Z,15.02
2023-05-24T03:40:19.268Z,14.50
2023-05-24T03:42:49.313Z,13.45
2023-05-24T03:45:27.034Z,12.98
2023-05-24T03:48:03.940Z,13.77
2023-05-24T03:50:32.373Z,13.80
2023-05-24T03:53:01.252Z,14.10
2023-05-24T03:55:29.528Z,13.10
2023-05-24T03:57:59.757Z,14.65
2023-05-24T04:00:28.340Z,13.77
2023-05-24T04:02:57.038Z,17.10
2023-05-24T04:05:27.335Z,18.85
2023-05-24T04:07:55.933Z,20.60
2023-05-24T04:10:24.250Z,21.95
2023-05-24T04:12:53.042Z,23.95
2023-05-24T04:15:23.141Z,22.60
2023-05-24T04:17:55.382Z,21.58
2023-05-24T04:20:25.978Z,22.27
2023-05-24T04:22:56.268Z,20.17
2023-05-24T04:25:25.012Z,18.73
2023-05-24T04:27:53.755Z,15.50
2023-05-24T04:30:23.600Z,15.63
2023-05-24T04:32:52.902Z,17.63
2023-05-24T04:35:21.744Z,14.95
2023-05-24T04:37:50.518Z,15.45
2023-05-24T04:40:20.792Z,14.68
2023-05-24T04:42:51.787Z,13.43
2023-05-24T04:45:20.135Z,13.07
2023-05-24T04:47:51.388Z,12.27
2023-05-24T04:50:19.587Z,13.63
2023-05-24T04:52:48.453Z,12.40
2023-05-24T04:55:16.712Z,12.88
2023-05-24T04:57:45.482Z,12.60
2023-05-24T05:00:15.066Z,13.27
2023-05-24T05:02:43.626Z,12.73
2023-05-24T05:05:13.714Z,11.57
2023-05-24T05:07:42.247Z,10.15
2023-05-24T05:10:10.924Z,9.20
2023-05-24T05:12:40.117Z,10.60
2023-05-24T05:15:10.563Z,9.70
2023-05-24T05:17:39.162Z,9.48
2023-05-24T05:20:09.151Z,8.15
2023-05-24T05:22:39.247Z,7.93
2023-05-24T05:25:08.101Z,7.85
2023-05-24T05:27:36.801Z,8.50
2023-05-24T05:30:05.863Z,9.52
2023-05-24T05:32:34.517Z,8.38
2023-05-24T05:35:02.852Z,10.30
2023-05-24T05:37:31.495Z,8.93
2023-05-24T05:40:01.243Z,7.85
2023-05-24T05:42:30.034Z,7.57
2023-05-24T05:44:58.549Z,6.82
2023-05-24T05:47:27.579Z,6.97
2023-05-24T05:49:59.903Z,8.82
2023-05-24T05:52:28.828Z,9.52
2023-05-24T05:54:57.231Z,8.85
2023-05-24T05:57:27.609Z,8.40
2023-05-24T05:59:55.952Z,6.72
2023-05-24T06:02:24.777Z,7.32
2023-05-24T06:04:53.603Z,7.30
2023-05-24T06:07:22.361Z,8.18
2023-05-24T06:09:50.685Z,8.25
2023-05-24T06:12:19.201Z,7.53
2023-05-24T06:14:50.749Z,8.07
2023-05-24T06:17:19.692Z,7.88
2023-05-24T06:19:47.930Z,6.82
2023-05-24T06:22:17.790Z,7.70
2023-05-24T06:24:46.048Z,7.60
2023-05-24T06:27:14.717Z,6.43
2023-05-24T06:29:42.916Z,6.97
2023-05-24T06:32:15.636Z,6.40
2023-05-24T06:34:44.693Z,8.40
2023-05-24T06:37:15.304Z,9.18
2023-05-24T06:39:46.998Z,8.23
2023-05-24T06:42:15.767Z,7.47
2023-05-24T06:44:44.418Z,9.35
2023-05-24T06:47:14.426Z,10.30
2023-05-24T06:49:43.171Z,9.63
2023-05-24T06:52:11.801Z,10.25
2023-05-24T06:54:40.424Z,9.43
2023-05-24T06:57:09.363Z,9.43
2023-05-24T06:59:37.673Z,9.20
2023-05-24T07:02:06.372Z,8.93
2023-05-24T07:04:36.761Z,8.30
2023-05-24T07:07:05.675Z,9.55
2023-05-24T07:09:34.344Z,9.38
2023-05-24T07:12:02.787Z,8.25
2023-05-24T07:14:31.288Z,8.20
2023-05-24T07:17:00.108Z,7.82
2023-05-24T07:19:29.888Z,9.00
2023-05-24T07:22:00.359Z,8.82
2023-05-24T07:24:29.582Z,8.65
2023-05-24T07:26:58.498Z,7.95
2023-05-24T07:29:27.196Z,8.52
2023-05-24T07:31:58.187Z,7.55
2023-05-24T07:34:30.299Z,6.63
2023-05-24T07:37:00.799Z,6.78
2023-05-24T07:39:29.657Z,5.73
2023-05-24T07:41:58.326Z,5.38
2023-05-24T07:44:27.069Z,4.88
2023-05-24T07:46:56.083Z,4.43
2023-05-24T07:49:24.639Z,4.68
2023-05-24T07:51:54.044Z,4.40
2023-05-24T07:54:23.783Z,6.40
2023-05-24T07:56:52.551Z,6.28
2023-05-24T07:59:21.262Z,6.80
2023-05-24T08:01:51.343Z,6.05
2023-05-24T08:04:20.078Z,6.80
2023-05-24T08:06:48.906Z,7.63
2023-05-24T08:09:17.740Z,6.97
2023-05-24T08:11:47.659Z,7.13
2023-05-24T08:14:15.866Z,6.32
2023-05-24T08:16:44.567Z,6.97
2023-05-24T08:19:13.133Z,7.38
2023-05-24T08:21:42.476Z,7.00
2023-05-24T08:24:10.946Z,7.00
2023-05-24T08:26:39.820Z,6.70
2023-05-24T08:29:09.615Z,6.57
2023-05-24T08:31:38.600Z,6.63
2023-05-24T08:34:07.266Z,7.65
2023-05-24T08:36:35.874Z,8.00
2023-05-24T08:39:05.113Z,6.70
2023-05-24T08:41:37.755Z,6.47
2023-05-24T08:44:08.114Z,6.80
2023-05-24T08:46:38.433Z,7.73
2023-05-24T08:49:09.289Z,6.70
2023-05-24T08:51:38.783Z,6.68
2023-05-24T08:54:07.954Z,5.53
2023-05-24T08:56:36.775Z,6.72
2023-05-24T08:59:05.203Z,6.03
2023-05-24T09:01:35.407Z,5.68
2023-05-24T09:04:06.629Z,4.78
2023-05-24T09:06:36.127Z,6.05
2023-05-24T09:09:05.091Z,5.72
2023-05-24T09:11:38.799Z,5.63
2023-05-24T09:14:07.957Z,5.47
2023-05-24T09:16:37.299Z,5.30
2023-05-24T09:19:07.156Z,5.88
2023-05-24T09:21:36.004Z,6.03
2023-05-24T09:24:04.638Z,4.57
2023-05-24T09:26:33.416Z,5.30
2023-05-24T09:29:01.968Z,5.57
2023-05-24T09:31:34.820Z,5.07
2023-05-24T09:34:03.398Z,4.45
2023-05-24T09:36:34.167Z,4.82
2023-05-24T09:39:10.241Z,5.57
2023-05-24T09:41:39.485Z,4.20
2023-05-24T09:44:08.261Z,4.25
2023-05-24T09:46:38.903Z,4.85
2023-05-24T09:49:08.632Z,4.03
2023-05-24T09:51:39.805Z,3.83
2023-05-24T09:54:09.706Z,4.18
2023-05-24T09:56:41.347Z,5.43
2023-05-24T10:01:40.131Z,4.72
2023-05-24T10:04:10.197Z,5.38
2023-05-24T10:06:43.631Z,5.00
2023-05-24T10:09:14.217Z,4.30
2023-05-24T10:11:43.043Z,4.25
2023-05-24T10:14:11.612Z,4.72
2023-05-24T10:16:40.294Z,3.95
2023-05-24T10:19:08.749Z,3.58
2023-05-24T10:21:39.023Z,3.67
2023-05-24T10:24:11.218Z,4.43
2023-05-24T10:26:40.666Z,4.82
2023-05-24T10:29:11.434Z,6.57
2023-05-24T10:31:41.714Z,5.93
2023-05-24T10:34:10.543Z,5.70
2023-05-24T10:36:40.676Z,7.40
2023-05-24T10:39:13.008Z,4.80
2023-05-24T10:41:42.488Z,4.10
2023-05-24T10:44:14.315Z,4.82
2023-05-24T10:47:08.475Z,3.58
2023-05-24T10:49:37.269Z,3.45
2023-05-24T10:52:10.066Z,4.07
2023-05-24T10:54:46.989Z,4.40
2023-05-24T10:57:24.623Z,4.63
2023-05-24T10:59:53.234Z,4.35
2023-05-24T11:02:23.083Z,4.13
2023-05-24T11:04:51.483Z,4.47
2023-05-24T11:07:21.080Z,3.80
2023-05-24T11:09:56.983Z,4.75
2023-05-24T11:12:35.023Z,5.57
2023-05-24T11:15:04.703Z,6.53
2023-05-24T11:18:12.836Z,6.32
2023-05-24T11:20:42.895Z,6.97
2023-05-24T11:23:12.365Z,6.47
2023-05-24T11:25:42.167Z,6.55
2023-05-24T11:28:12.253Z,6.95
2023-05-24T11:30:41.997Z,6.32
2023-05-24T11:33:18.796Z,7.03
2023-05-24T11:35:47.168Z,6.03
2023-05-24T11:38:17.026Z,6.05
2023-05-24T11:40:48.819Z,6.60
2023-05-24T11:43:19.057Z,5.85
2023-05-24T11:45:49.148Z,6.60
2023-05-24T11:48:21.835Z,6.18
2023-05-24T11:50:50.557Z,6.13
2023-05-24T11:53:20.580Z,6.32
2023-05-24T11:55:51.531Z,6.00
2023-05-24T12:00:49.595Z,6.35
2023-05-24T12:03:18.404Z,5.70
2023-05-24T12:05:47.215Z,5.50
2023-05-24T12:08:15.916Z,5.07
2023-05-24T12:10:44.799Z,4.40
2023-05-24T12:13:24.413Z,4.40
2023-05-24T12:15:55.887Z,4.82
2023-05-24T12:18:26.970Z,4.45
2023-05-24T12:20:55.377Z,4.95
2023-05-24T12:23:27.890Z,3.90
2023-05-24T12:25:59.993Z,4.72
2023-05-24T12:28:35.863Z,5.57
2023-05-24T12:31:04.859Z,4.13
2023-05-24T12:33:33.863Z,4.20
2023-05-24T12:36:02.105Z,4.20
2023-05-24T12:38:32.992Z,5.18
2023-05-24T12:41:11.516Z,4.70
2023-05-24T12:43:44.611Z,4.07
2023-05-24T12:48:41.979Z,4.38
2023-05-24T12:51:11.582Z,5.10
2023-05-24T12:53:40.202Z,4.70
2023-05-24T12:56:09.276Z,4.82
2023-05-24T12:58:37.965Z,4.80
2023-05-24T13:01:07.889Z,4.72
2023-05-24T13:03:36.645Z,6.07
2023-05-24T13:06:05.124Z,8.13
2023-05-24T13:08:34.090Z,6.55
2023-05-24T13:11:02.461Z,6.75
2023-05-24T13:13:32.654Z,6.85
2023-05-24T13:16:00.858Z,5.75
2023-05-24T13:18:31.013Z,4.55
2023-05-24T13:21:00.905Z,4.70
2023-05-24T13:23:29.907Z,4.53
2023-05-24T13:25:58.566Z,5.00
2023-05-24T13:28:27.102Z,4.85
2023-05-24T13:30:55.610Z,4.65
2023-05-24T13:33:24.350Z,4.70
2023-05-24T13:35:54.635Z,6.43
2023-05-24T13:38:23.775Z,5.63
2023-05-24T13:40:53.576Z,4.18
2023-05-24T13:43:23.030Z,4.78
2023-05-24T13:45:51.602Z,4.38
2023-05-24T13:48:20.246Z,4.65
2023-05-24T13:50:48.701Z,3.78
2023-05-24T13:53:18.785Z,4.07
2023-05-24T13:55:47.076Z,4.57
2023-05-24T13:58:15.731Z,4.22
2023-05-24T14:00:44.283Z,3.78
2023-05-24T14:03:13.263Z,4.50
2023-05-24T14:05:42.173Z,3.83
2023-05-24T14:08:10.978Z,5.07
2023-05-24T14:10:41.093Z,4.32
2023-05-24T14:13:34.160Z,4.22
2023-05-24T14:16:01.254Z,4.38
2023-05-24T14:18:30.243Z,6.70
2023-05-24T14:20:58.534Z,7.55
2023-05-24T14:23:28.014Z,5.72
2023-05-24T14:25:57.790Z,5.30
2023-05-24T14:28:26.504Z,5.03
2023-05-24T14:30:55.082Z,4.20
2023-05-24T14:33:23.957Z,4.78
2023-05-24T14:35:52.274Z,4.20
2023-05-24T14:38:20.989Z,4.43
2023-05-24T14:40:49.388Z,4.80
2023-05-24T14:43:19.491Z,4.47
2023-05-24T14:45:47.884Z,3.80
2023-05-24T14:48:17.108Z,3.40
2023-05-24T14:50:45.510Z,3.60
2023-05-24T14:53:14.009Z,4.03
2023-05-24T14:55:43.963Z,4.03
2023-05-24T14:58:13.994Z,4.72
2023-05-24T15:00:44.433Z,4.60
2023-05-24T15:03:14.658Z,3.78
2023-05-24T15:05:43.267Z,4.57
2023-05-24T15:08:12.339Z,4.90
2023-05-24T15:10:41.127Z,4.15
2023-05-24T15:13:10.088Z,4.60
2023-05-24T15:15:38.407Z,4.47
2023-05-24T15:18:09.836Z,3.97
2023-05-24T15:20:38.363Z,4.18
2023-05-24T15:23:10.711Z,4.15
2023-05-24T15:25:39.272Z,3.88
2023-05-24T15:28:07.973Z,3.50
2023-05-24T15:30:36.209Z,3.92
2023-05-24T15:33:05.037Z,3.53
2023-05-24T15:35:34.901Z,3.67
2023-05-24T15:38:03.381Z,4.10
2023-05-24T15:40:32.014Z,5.07
2023-05-24T15:43:00.525Z,4.53
2023-05-24T15:45:29.217Z,4.43
2023-05-24T15:47:57.980Z,5.03
2023-05-24T15:50:47.499Z,4.50
2023-05-24T15:53:17.359Z,6.95
2023-05-24T15:55:47.198Z,5.28
2023-05-24T15:58:15.870Z,4.78
2023-05-24T16:00:44.326Z,4.00
2023-05-24T16:03:15.913Z,4.55
2023-05-24T16:08:13.334Z,4.95
2023-05-24T16:10:44.503Z,4.60
2023-05-24T16:13:13.425Z,4.47
2023-05-24T16:15:42.721Z,4.45
2023-05-24T16:18:11.817Z,4.40
2023-05-24T16:20:40.345Z,3.83
2023-05-24T16:23:09.121Z,5.07
2023-05-24T16:25:37.703Z,4.30
2023-05-24T16:28:07.547Z,3.63
2023-05-24T16:30:36.842Z,5.13
2023-05-24T16:33:05.976Z,5.05
2023-05-24T16:35:34.604Z,6.68
2023-05-24T16:38:03.245Z,5.18
2023-05-24T16:40:31.819Z,5.25
2023-05-24T16:43:00.424Z,4.95
2023-05-24T16:45:30.603Z,5.32
2023-05-24T16:47:59.124Z,5.18
2023-05-24T16:50:27.826Z,5.60
2023-05-24T16:52:56.521Z,4.97
2023-05-24T16:55:25.108Z,6.13
2023-05-24T16:57:53.488Z,5.10
2023-05-24T17:00:23.252Z,6.97
2023-05-24T17:02:53.182Z,6.63
2023-05-24T17:05:21.895Z,7.38
2023-05-24T17:07:50.299Z,7.10
2023-05-24T17:10:19.234Z,4.90
2023-05-24T17:12:48.710Z,7.72
2023-05-24T17:15:17.439Z,4.93
2023-05-24T17:17:45.796Z,6.70
2023-05-24T17:20:16.294Z,5.22
2023-05-24T17:22:44.742Z,4.97
2023-05-24T17:25:13.396Z,6.22
2023-05-24T17:27:41.818Z,6.47
2023-05-24T17:30:11.319Z,6.05
2023-05-24T17:32:39.689Z,5.97
2023-05-24T17:35:09.501Z,5.38
2023-05-24T17:37:39.274Z,5.40
2023-05-24T17:40:09.261Z,5.50
2023-05-24T17:42:37.720Z,5.70
2023-05-24T17:45:07.483Z,4.65
2023-05-24T17:47:35.848Z,5.80
2023-05-24T17:50:04.741Z,5.40
2023-05-24T17:52:33.464Z,5.63
2023-05-24T17:55:04.145Z,5.10
2023-05-24T17:57:32.371Z,5.10
2023-05-24T18:00:00.913Z,5.70
2023-05-24T18:02:32.358Z,6.03
2023-05-24T18:05:01.415Z,5.50
2023-05-24T18:07:30.481Z,4.90
2023-05-24T18:10:00.579Z,6.75
2023-05-24T18:12:30.875Z,6.75
2023-05-24T18:14:59.644Z,6.90
2023-05-24T18:17:28.371Z,5.75
2023-05-24T18:19:57.312Z,5.38
2023-05-24T18:22:25.562Z,6.90
2023-05-24T18:24:54.255Z,7.68
2023-05-24T18:27:22.669Z,5.32
2023-05-24T18:29:52.737Z,6.13
2023-05-24T18:32:21.434Z,6.18
2023-05-24T18:34:50.189Z,7.25
2023-05-24T18:37:20.013Z,6.05
2023-05-24T18:39:48.649Z,4.57
2023-05-24T18:42:17.184Z,4.50
2023-05-24T18:44:47.180Z,4.60
2023-05-24T18:47:17.157Z,4.50
2023-05-24T18:49:46.318Z,5.27
2023-05-24T18:52:15.902Z,4.95
2023-05-24T18:54:44.465Z,5.25
2023-05-24T18:57:13.202Z,4.53
2023-05-24T18:59:43.439Z,5.80
2023-05-24T19:02:11.932Z,5.68
2023-05-24T19:04:42.042Z,5.63
2023-05-24T19:07:11.076Z,5.13
2023-05-24T19:09:39.822Z,4.32
2023-05-24T19:12:11.016Z,4.32
2023-05-24T19:14:41.524Z,4.30
2023-05-24T19:17:10.069Z,4.32
2023-05-24T19:19:39.020Z,4.47
2023-05-24T19:22:09.486Z,4.20
2023-05-24T19:24:38.119Z,4.32
2023-05-24T19:27:06.835Z,4.47
2023-05-24T19:29:35.633Z,5.25
2023-05-24T19:32:04.198Z,4.40
2023-05-24T19:34:35.666Z,4.90
2023-05-24T19:37:04.235Z,4.63
2023-05-24T19:39:34.404Z,4.97
2023-05-24T19:42:03.039Z,4.63
2023-05-24T19:44:33.129Z,5.00
2023-05-24T19:47:06.327Z,5.35
2023-05-24T19:49:37.506Z,4.72
2023-05-24T19:52:06.892Z,4.50
2023-05-24T19:54:38.681Z,4.82
2023-05-24T19:57:10.643Z,5.63
2023-05-24T19:59:39.299Z,5.22
2023-05-24T20:02:08.125Z,5.38
2023-05-24T20:04:41.602Z,4.93
2023-05-24T20:07:09.885Z,4.85
2023-05-24T20:09:41.804Z,4.70
2023-05-24T20:12:11.070Z,5.82
2023-05-24T20:14:39.747Z,5.28
2023-05-24T20:17:08.140Z,5.47
2023-05-24T20:19:37.045Z,5.22
2023-05-24T20:22:05.738Z,6.22
2023-05-24T20:24:34.638Z,5.60
2023-05-24T20:27:04.471Z,5.40
2023-05-24T20:29:33.036Z,5.95
2023-05-24T20:32:01.289Z,5.90
2023-05-24T20:34:29.800Z,6.43
2023-05-24T20:36:58.145Z,6.00
2023-05-24T20:39:26.756Z,6.43
2023-05-24T20:41:56.203Z,6.28
2023-05-24T20:44:26.904Z,6.25
2023-05-24T20:46:55.317Z,6.15
2023-05-24T20:49:24.100Z,5.75
2023-05-24T20:51:52.357Z,5.88
2023-05-24T20:54:20.844Z,6.10
2023-05-24T20:56:49.626Z,6.00
2023-05-24T20:59:18.340Z,5.80
2023-05-24T21:01:48.160Z,6.05
2023-05-24T21:04:16.964Z,5.78
2023-05-24T21:06:45.418Z,6.47
2023-05-24T21:09:14.101Z,5.82
2023-05-24T21:11:44.251Z,5.55
2023-05-24T21:14:13.431Z,4.90
2023-05-24T21:16:41.777Z,6.13
2023-05-24T21:19:11.888Z,5.60
2023-05-24T21:21:40.313Z,5.50
2023-05-24T21:24:09.229Z,6.32
2023-05-24T21:26:37.684Z,6.65
2023-05-24T21:29:06.387Z,6.30
2023-05-24T21:31:36.051Z,6.20
2023-05-24T21:34:04.721Z,7.78
2023-05-24T21:36:34.494Z,7.53
2023-05-24T21:39:07.994Z,7.25
2023-05-24T21:41:36.496Z,7.60
2023-05-24T21:44:07.139Z,7.03
2023-05-24T21:46:36.624Z,7.60
2023-05-24T21:49:05.341Z,6.22
2023-05-24T21:51:35.087Z,6.88
2023-05-24T21:54:03.743Z,6.80
2023-05-24T21:56:32.075Z,7.50
2023-05-24T21:59:00.554Z,7.40
2023-05-24T22:01:29.425Z,7.55
2023-05-24T22:03:58.597Z,6.32
2023-05-24T22:06:27.054Z,7.07
2023-05-24T22:09:02.033Z,7.15
2023-05-24T22:11:30.619Z,7.15
2023-05-24T22:13:59.356Z,6.97
2023-05-24T22:16:27.654Z,7.43
2023-05-24T22:18:56.987Z,7.35
2023-05-24T22:21:26.384Z,7.82
2023-05-24T22:23:56.471Z,8.63
2023-05-24T22:26:27.105Z,7.22
2023-05-24T22:29:01.017Z,8.02
2023-05-24T22:31:31.284Z,6.72
2023-05-24T22:34:02.340Z,7.10
2023-05-24T22:36:33.559Z,8.27
2023-05-24T22:39:03.876Z,7.15
2023-05-24T22:41:32.562Z,7.13
2023-05-24T22:44:01.520Z,7.30
2023-05-24T22:46:30.009Z,6.25
2023-05-24T22:49:03.196Z,6.95
2023-05-24T22:51:31.570Z,7.80
2023-05-24T22:54:00.057Z,7.43
2023-05-24T22:56:29.729Z,8.35
2023-05-24T22:58:58.356Z,6.63
2023-05-24T23:01:28.232Z,7.90
2023-05-24T23:04:07.776Z,8.75
2023-05-24T23:06:45.818Z,7.65
2023-05-24T23:09:14.581Z,7.63
2023-05-24T23:11:44.534Z,7.97
2023-05-24T23:14:14.482Z,8.18
2023-05-24T23:16:45.709Z,7.90
2023-05-24T23:19:18.739Z,8.50
2023-05-24T23:21:47.633Z,9.45
2023-05-24T23:24:16.610Z,9.30
2023-05-24T23:26:46.347Z,8.73
2023-05-24T23:29:15.029Z,8.23
2023-05-24T23:31:43.477Z,8.13
2023-05-24T23:34:12.052Z,8.70
2023-05-24T23:36:40.375Z,9.15
2023-05-24T23:39:10.981Z,9.43
2023-05-24T23:41:39.556Z,8.57
2023-05-24T23:44:09.543Z,9.95
2023-05-24T23:46:37.973Z,10.32
2023-05-24T23:49:06.651Z,9.07
2023-05-24T23:51:35.325Z,9.18
2023-05-24T23:54:04.065Z,8.52
2023-05-24T23:56:32.414Z,9.10
2023-05-24T23:59:01.481Z,8.50
